الصفحة الرئيسية
METAR-TAF:

METAR-TAF

مطار :

مطار الأمير سعيد إبراهيم الدولي

موروني, جزر القمر

دائرة عرض: 11-32S, خط طول: 043-16E, ارتفاع: 29 متر

مراقبة الطقس الحالي

تاريخ ووقت الإصدار 23 دقيقة قبل الساعة 04:00UTC
ريح 4 عقدة من الجنوب الشرقي
درجة الحرارة 24°درجة مئوية
الرطوبة 78%
ضغط 1017 hPa
الرؤية 10 كم أو أكثر
غيوم قليلة على ارتفاع 2000 قدم

METAR: FMCH 240400Z 14004KT 9999 FEW020 24/20 Q1017 NOSIG

زمن: 07:23 (04:23 UTC)

توقعات

تاريخ ووقت الإصدار 38 دقيقة قبل الساعة 03:45UTC
التوقعات صالحة من23 الساعة 18 UTC إلى 24 الساعة 24 UTC
ريح 3 عقدة من الشرق
الرؤية 10 كم أو أكثر
غيوم قليلة على ارتفاع 2000 قدم
أصبح
من 24 الساعة 06 UTC إلى 24 الساعة 08 UTC
ريح 10 عقدة من الجنوب الغربي
نظرية الاحتمالات 30% :
مؤقت
من 24 الساعة 11 UTC إلى 24 الساعة 15 UTC
الرؤية: 4500 متر
زخات من المطر
أصبح
من 24 الساعة 16 UTC إلى 24 الساعة 18 UTC
ريح 3 عقدة من الشرق

TAF: FMCH 240345Z 2318/2424 10003KT 9999 FEW020 BECMG 2406/2408 22010KT PROB30 TEMPO 2411/2415 4500 SHRA BECMG 2416/2418 09003KT

أرصاد الطقس والتوقعات من أكثر من 4000 مطار (تقارير الطقس للمطار METAR والتنبؤ بالطقس بالمطارTAF).

المحطات المتاحة هي النقط الصفراء والحمراء على الخريطة.

حرك المؤشر فوق النقطة لمعرفة اسم المحطة.

ثم انقر لمعرفة أرصاد وتوقعات الطقس.

لتغيير الخارطة: اضغط على الأزرار الخضراء مع رمز الصليب الأسود للتكبير. على الزر الأخضر مع شرطة للتصغير، أو على الأسهم الخضراء للخرائط المجاورة.


METAR-TAF: